Portada
METAR-TAF:

METAR-TAF

Aeroports :

Wadi ad-Dawasir, Aràbia Saudita

latitud: 20-30N, longitud: 045-12E, altitud: 624 m

Observació

L'informe es va fer fa 56 minuts, a les 00:00 UTC
Vent 8 kt del Nord-Est
Temperatura 37°C
Humitat 20%
Pressió 1004 hPa
Visibilitat: 2000 m
Pols estès

METAR: OEWD 200000Z 04008KT 2000 DU NSC 37/10 Q1004

Hora: 03:56 (00:56 UTC)

Pronòstic

L'informe es va fer fa 1 hora i 56 minuts, a les 23:00 UTC
Pronòstic vàlid del 20 a les 00 UTC al 21 a les 06 UTC
Vent 3 kt amb direcció variable
Visibilitat: 4000 m
Escasses núvols a una alçada de 4000 ft
Pols estès
Temporalment
l' 20 a les 00 UTC al 20 a les 12 UTC
Visibilitat: 2000 m
torb alta de pols
Evolucionant progressivament
l' 20 a les 06 UTC al 20 a les 08 UTC
Vent 8 kt del Nord/Nord-Est amb ràfegues de 18 kt

TAF: OEWD 192300Z 2000/2106 VRB03KT 4000 DU FEW040 TEMPO 2000/2012 2000 BLDU BECMG 2006/2008 02008G18KT

Observacions i pronòstics meteorològics de més de 4000 aeroports (METAR i TAF).

Les estacions disponibles són els punts grocs i vermells al mapa.

Posi el ratolí al punt desitjat per veure el nom de l'estació.

Feu clic per veure les observacions i els pronòstics meteorològics.

Per canviar el mapa: feu clic els botons verds amb una creu de color negre per apropar; al botó verd amb un guió per allunyar la imatge; o en les fletxes verdes per a mapes adjacents.


METAR-TAF: